createdAt,value
2023-07-28T00:00:11.403Z,16.32
2023-07-28T00:03:04.904Z,16.34
2023-07-28T00:05:42.194Z,16.35
2023-07-28T00:08:33.536Z,16.36
2023-07-28T00:11:10.397Z,16.37
2023-07-28T00:13:48.441Z,16.37
2023-07-28T00:16:39.017Z,16.37
2023-07-28T00:19:35.115Z,16.37
2023-07-28T00:22:21.626Z,16.36
2023-07-28T00:24:59.154Z,16.36
2023-07-28T00:27:54.271Z,16.34
2023-07-28T00:30:42.809Z,16.33
2023-07-28T00:33:38.530Z,16.32
2023-07-28T00:36:17.855Z,16.31
2023-07-28T00:38:55.431Z,16.30
2023-07-28T00:41:35.289Z,16.26
2023-07-28T00:44:32.684Z,16.24
2023-07-28T00:47:17.721Z,16.21
2023-07-28T00:49:48.030Z,16.20
2023-07-28T00:53:08.221Z,16.17
2023-07-28T00:56:00.813Z,16.17
2023-07-28T00:58:52.309Z,16.17
2023-07-28T01:01:41.791Z,16.18
2023-07-28T01:04:29.909Z,16.18
2023-07-28T01:07:39.081Z,16.19
2023-07-28T01:10:39.631Z,16.19
2023-07-28T01:13:14.680Z,16.19
2023-07-28T01:16:13.542Z,16.20
2023-07-28T01:18:50.981Z,16.22
2023-07-28T01:21:46.630Z,16.22
2023-07-28T01:25:11.483Z,16.22
2023-07-28T01:28:06.424Z,16.22
2023-07-28T01:31:09.591Z,16.22
2023-07-28T01:33:57.641Z,16.22
2023-07-28T01:36:49.970Z,16.22
2023-07-28T01:39:31.085Z,16.23
2023-07-28T01:42:18.596Z,16.22
2023-07-28T01:45:07.381Z,16.21
2023-07-28T01:48:06.698Z,16.20
2023-07-28T01:51:06.624Z,16.20
2023-07-28T01:54:19.303Z,16.18
2023-07-28T01:57:20.080Z,16.17
2023-07-28T02:00:17.223Z,16.18
2023-07-28T02:02:53.618Z,16.17
2023-07-28T02:05:42.376Z,16.17
2023-07-28T02:08:24.821Z,16.17
2023-07-28T02:11:06.379Z,16.17
2023-07-28T02:13:43.230Z,16.17
2023-07-28T02:16:18.090Z,16.17
2023-07-28T02:18:51.287Z,16.17
2023-07-28T02:21:34.468Z,16.17
2023-07-28T02:24:04.312Z,16.17
2023-07-28T02:26:49.293Z,16.17
2023-07-28T02:29:22.272Z,16.17
2023-07-28T02:32:16.871Z,16.17
2023-07-28T02:35:02.392Z,16.17
2023-07-28T02:38:00.839Z,16.16
2023-07-28T02:40:50.347Z,16.16
2023-07-28T02:43:48.501Z,16.16
2023-07-28T02:46:39.744Z,16.16
2023-07-28T02:49:14.768Z,16.15
2023-07-28T02:52:06.952Z,16.16
2023-07-28T02:54:51.923Z,16.18
2023-07-28T02:57:46.196Z,16.18
2023-07-28T03:00:21.451Z,16.17
2023-07-28T03:02:52.542Z,16.14
2023-07-28T03:05:30.209Z,16.12
2023-07-28T03:08:40.311Z,16.11
2023-07-28T03:11:52.494Z,16.09
2023-07-28T03:14:40.804Z,16.09
2023-07-28T03:17:39.567Z,16.09
2023-07-28T03:20:26.238Z,16.10
2023-07-28T03:23:03.679Z,16.12
2023-07-28T03:25:53.884Z,16.13
2023-07-28T03:28:30.442Z,16.14
2023-07-28T03:31:26.450Z,16.15
2023-07-28T03:34:01.704Z,16.15
2023-07-28T03:36:48.981Z,16.15
2023-07-28T03:39:37.738Z,16.16
2023-07-28T03:42:18.439Z,16.15
2023-07-28T03:45:17.185Z,16.17
2023-07-28T03:48:06.093Z,16.18
2023-07-28T03:51:00.400Z,16.19
2023-07-28T03:53:54.710Z,16.21
2023-07-28T03:56:33.063Z,16.23
2023-07-28T03:59:05.824Z,16.24
2023-07-28T04:01:53.994Z,16.27
2023-07-28T04:04:44.499Z,16.29
2023-07-28T04:07:32.259Z,16.31
2023-07-28T04:10:11.503Z,16.33
2023-07-28T04:12:41.607Z,16.38
2023-07-28T04:15:16.779Z,16.41
2023-07-28T04:18:11.821Z,16.42
2023-07-28T04:20:48.781Z,16.46
2023-07-28T04:23:45.440Z,16.50
2023-07-28T04:26:22.146Z,16.52
2023-07-28T04:28:54.524Z,16.53
2023-07-28T04:31:28.999Z,16.52
2023-07-28T04:34:05.115Z,16.52
2023-07-28T04:37:03.640Z,16.54
2023-07-28T04:39:42.393Z,16.59
2023-07-28T04:42:25.372Z,16.63
2023-07-28T04:44:59.051Z,16.65
2023-07-28T04:47:37.963Z,16.66
2023-07-28T04:50:41.146Z,16.69
2023-07-28T04:53:40.687Z,16.72
2023-07-28T04:56:30.113Z,16.79
2023-07-28T04:59:18.835Z,16.86
2023-07-28T05:02:05.335Z,16.91
2023-07-28T05:04:46.985Z,16.91
2023-07-28T05:07:30.667Z,16.91
2023-07-28T05:10:25.454Z,16.90
2023-07-28T05:13:09.679Z,16.91
2023-07-28T05:15:40.869Z,16.91
2023-07-28T05:18:19.454Z,16.90
2023-07-28T05:21:30.745Z,16.86
2023-07-28T05:24:02.632Z,16.82
2023-07-28T05:26:36.098Z,16.79
2023-07-28T05:29:12.001Z,16.73
2023-07-28T05:31:44.934Z,16.68
2023-07-28T05:34:29.007Z,16.70
2023-07-28T05:37:01.300Z,16.71
2023-07-28T05:39:37.378Z,16.73
2023-07-28T05:42:14.562Z,16.77
2023-07-28T05:45:16.335Z,16.80
2023-07-28T05:48:04.998Z,16.80
2023-07-28T05:51:01.077Z,16.77
2023-07-28T05:53:46.378Z,16.66
2023-07-28T05:56:20.769Z,16.56
2023-07-28T05:58:59.810Z,16.49
2023-07-28T06:01:33.538Z,16.44
2023-07-28T06:04:39.920Z,16.43
2023-07-28T06:07:28.440Z,16.41
2023-07-28T06:09:59.103Z,16.40
2023-07-28T06:12:38.061Z,16.40
2023-07-28T06:15:11.785Z,16.42
2023-07-28T06:17:42.267Z,16.44
2023-07-28T06:20:29.767Z,16.45
2023-07-28T06:23:06.711Z,16.48
2023-07-28T06:25:47.749Z,16.47
2023-07-28T06:28:25.449Z,16.49
2023-07-28T06:31:11.195Z,16.47
2023-07-28T06:33:47.749Z,16.36
2023-07-28T06:36:32.988Z,16.25
2023-07-28T06:39:16.571Z,16.18
2023-07-28T06:41:49.367Z,16.16
2023-07-28T06:44:22.318Z,16.17
2023-07-28T06:47:02.967Z,16.19
2023-07-28T06:49:36.521Z,16.17
2023-07-28T06:52:53.990Z,16.18
2023-07-28T06:55:40.435Z,16.20
2023-07-28T06:58:32.321Z,16.21
2023-07-28T07:01:13.524Z,16.22
2023-07-28T07:03:44.091Z,16.26
2023-07-28T07:06:25.505Z,16.28
2023-07-28T07:09:02.327Z,16.34
2023-07-28T07:11:40.738Z,16.42
2023-07-28T07:14:11.758Z,16.48
2023-07-28T07:16:51.921Z,16.53
2023-07-28T07:19:22.899Z,16.61
2023-07-28T07:21:54.174Z,16.67
2023-07-28T07:24:29.623Z,16.68
2023-07-28T07:27:03.228Z,16.69
2023-07-28T07:29:34.212Z,16.72
2023-07-28T07:32:05.597Z,16.72
2023-07-28T07:34:45.129Z,16.73
2023-07-28T07:37:22.920Z,16.69
2023-07-28T07:39:56.786Z,16.69
2023-07-28T07:42:45.753Z,16.74
2023-07-28T07:45:21.385Z,16.68
2023-07-28T07:47:57.409Z,16.66
2023-07-28T07:50:32.131Z,16.67
2023-07-28T07:53:55.507Z,16.69
2023-07-28T07:56:30.459Z,16.76
2023-07-28T07:59:03.224Z,16.88
2023-07-28T08:01:47.569Z,16.98
2023-07-28T08:04:26.017Z,17.02
2023-07-28T08:06:57.884Z,17.05
2023-07-28T08:09:28.735Z,17.03
2023-07-28T08:12:02.247Z,16.93
2023-07-28T08:14:32.510Z,16.81
2023-07-28T08:17:07.011Z,16.71
2023-07-28T08:19:43.718Z,16.61
2023-07-28T08:22:16.741Z,16.59
2023-07-28T08:24:51.176Z,16.52
2023-07-28T08:27:33.039Z,16.43
2023-07-28T08:30:20.560Z,16.33
2023-07-28T08:32:53.623Z,16.22
2023-07-28T08:36:12.567Z,16.09
2023-07-28T08:38:46.745Z,16.03
2023-07-28T08:41:19.574Z,16.04
2023-07-28T08:44:05.852Z,16.05
2023-07-28T08:46:50.690Z,16.09
2023-07-28T08:49:32.851Z,16.18
2023-07-28T08:52:05.516Z,16.32
2023-07-28T08:54:41.602Z,16.62
2023-07-28T08:57:13.069Z,16.84
2023-07-28T08:59:54.702Z,16.97
2023-07-28T09:02:31.916Z,17.20
2023-07-28T09:05:08.361Z,17.37
2023-07-28T09:07:40.520Z,17.52
2023-07-28T09:10:10.928Z,17.63
2023-07-28T09:12:56.209Z,17.76
2023-07-28T09:15:26.591Z,18.10
2023-07-28T09:18:03.483Z,18.42
2023-07-28T09:20:40.075Z,18.67
2023-07-28T09:23:11.691Z,18.82
2023-07-28T09:25:41.712Z,18.93
2023-07-28T09:28:13.811Z,18.91
2023-07-28T09:30:50.834Z,18.73
2023-07-28T09:33:40.955Z,18.53
2023-07-28T09:36:18.649Z,18.27
2023-07-28T09:38:52.868Z,18.02
2023-07-28T09:41:34.659Z,17.93
2023-07-28T09:44:07.976Z,17.85
2023-07-28T09:47:02.112Z,17.81
2023-07-28T09:49:45.553Z,17.81
2023-07-28T09:52:51.627Z,17.82
2023-07-28T09:55:24.497Z,17.87
2023-07-28T09:57:57.625Z,17.99
2023-07-28T10:00:28.044Z,18.07
2023-07-28T10:03:06.445Z,18.04
2023-07-28T10:05:42.438Z,18.04
2023-07-28T10:08:19.204Z,18.01
2023-07-28T10:11:03.598Z,17.97
2023-07-28T10:13:56.889Z,17.94
2023-07-28T10:16:49.981Z,18.01
2023-07-28T10:19:23.800Z,18.03
2023-07-28T10:22:03.994Z,18.03
2023-07-28T10:25:13.400Z,18.01
2023-07-28T10:27:56.480Z,17.95
2023-07-28T10:30:27.271Z,17.92
2023-07-28T10:32:58.041Z,17.90
2023-07-28T10:35:35.582Z,17.91
2023-07-28T10:38:37.915Z,17.89
2023-07-28T10:41:17.170Z,18.09
2023-07-28T10:43:53.529Z,18.40
2023-07-28T10:46:30.044Z,18.72
2023-07-28T10:49:10.401Z,18.85
2023-07-28T10:52:56.025Z,18.86
2023-07-28T10:55:34.005Z,18.88
2023-07-28T10:58:05.461Z,18.88
2023-07-28T11:00:35.845Z,18.89
2023-07-28T11:03:07.449Z,19.01
2023-07-28T11:05:47.238Z,19.14
2023-07-28T11:08:21.450Z,19.20
2023-07-28T11:10:52.919Z,19.24
2023-07-28T11:13:40.399Z,19.30
2023-07-28T11:16:12.329Z,19.55
2023-07-28T11:18:43.254Z,19.58
2023-07-28T11:21:13.614Z,19.45
2023-07-28T11:23:50.700Z,19.40
2023-07-28T11:26:23.830Z,19.40
2023-07-28T11:28:56.581Z,19.35
2023-07-28T11:31:31.958Z,19.31
2023-07-28T11:34:05.597Z,19.25
2023-07-28T11:36:45.323Z,19.14
2023-07-28T11:39:18.942Z,19.07
2023-07-28T11:41:55.228Z,19.05
2023-07-28T11:44:27.508Z,19.20
2023-07-28T11:47:08.714Z,19.39
2023-07-28T11:49:48.715Z,19.55
2023-07-28T11:53:14.248Z,19.67
2023-07-28T11:55:49.159Z,19.88
2023-07-28T11:58:24.272Z,20.19
2023-07-28T12:00:56.391Z,20.43
2023-07-28T12:03:33.087Z,20.71
2023-07-28T12:08:46.101Z,21.52
2023-07-28T12:11:21.309Z,21.69
2023-07-28T12:19:22.949Z,22.32
2023-07-28T12:21:52.439Z,22.30
2023-07-28T12:24:24.711Z,22.26
2023-07-28T12:26:59.283Z,22.43
2023-07-28T12:29:31.389Z,22.67
2023-07-28T12:32:03.632Z,22.50
2023-07-28T12:34:46.280Z,22.25
2023-07-28T12:37:57.666Z,22.01
2023-07-28T12:41:09.076Z,21.77
2023-07-28T12:43:05.731Z,21.52
2023-07-28T12:48:30.779Z,21.12
2023-07-28T12:51:04.494Z,20.96
2023-07-28T12:54:02.499Z,20.89
2023-07-28T12:56:38.317Z,20.80
2023-07-28T13:01:43.395Z,20.66
2023-07-28T13:04:14.896Z,20.69
2023-07-28T13:06:46.422Z,20.80
2023-07-28T13:14:26.433Z,21.00
2023-07-28T13:16:56.665Z,21.04
2023-07-28T13:19:26.694Z,21.33
2023-07-28T13:21:58.920Z,21.78
2023-07-28T13:24:31.226Z,22.17
2023-07-28T13:27:03.328Z,22.66
2023-07-28T13:29:32.747Z,23.16
2023-07-28T13:32:02.501Z,23.43
2023-07-28T13:34:34.474Z,23.48
2023-07-28T13:37:03.832Z,23.30
2023-07-28T13:39:33.340Z,22.92
2023-07-28T13:42:04.328Z,22.59
2023-07-28T13:49:28.759Z,22.02
2023-07-28T13:56:21.629Z,21.74
2023-07-28T13:58:59.425Z,21.71
2023-07-28T14:01:36.693Z,21.66
2023-07-28T14:04:14.298Z,21.67
2023-07-28T14:06:55.958Z,21.82
2023-07-28T14:09:31.785Z,22.33
2023-07-28T14:12:25.886Z,23.04
2023-07-28T14:15:42.877Z,23.48
2023-07-28T14:18:42.060Z,23.91
2023-07-28T14:21:14.400Z,23.95
2023-07-28T14:23:50.891Z,23.84
2023-07-28T14:26:23.491Z,23.78
2023-07-28T14:28:54.390Z,23.94
2023-07-28T14:31:25.918Z,24.06
2023-07-28T14:33:57.478Z,23.93
2023-07-28T14:36:36.168Z,23.84
2023-07-28T14:39:20.743Z,23.53
2023-07-28T14:41:52.309Z,23.24
2023-07-28T14:44:22.019Z,22.93
2023-07-28T14:46:51.915Z,22.70
2023-07-28T14:49:22.651Z,22.62
2023-07-28T14:56:03.493Z,22.26
2023-07-28T14:58:36.199Z,22.16
2023-07-28T15:01:16.838Z,22.02
2023-07-28T15:03:48.497Z,21.93
2023-07-28T15:06:18.456Z,21.91
2023-07-28T15:08:48.116Z,21.91
2023-07-28T15:11:38.434Z,21.91
2023-07-28T15:14:09.507Z,21.92
2023-07-28T15:16:39.447Z,22.19
2023-07-28T15:19:12.378Z,22.44
2023-07-28T15:21:42.469Z,22.55
2023-07-28T15:24:15.444Z,22.65
2023-07-28T15:26:48.749Z,22.75
2023-07-28T15:29:19.778Z,22.89
2023-07-28T15:31:50.937Z,23.06
2023-07-28T15:34:21.202Z,23.14
2023-07-28T15:37:13.294Z,23.23
2023-07-28T15:40:12.134Z,23.38
2023-07-28T15:42:56.733Z,23.41
2023-07-28T15:45:32.921Z,23.42
2023-07-28T15:48:05.357Z,23.39
2023-07-28T15:50:37.629Z,23.27
2023-07-28T15:53:10.927Z,23.19
2023-07-28T15:55:40.956Z,23.12
2023-07-28T15:58:13.415Z,23.00
2023-07-28T16:00:46.390Z,22.85
2023-07-28T16:03:21.034Z,22.87
2023-07-28T16:05:53.026Z,23.15
2023-07-28T16:08:23.170Z,23.55
2023-07-28T16:10:52.905Z,23.68
2023-07-28T16:13:22.903Z,23.76
2023-07-28T16:15:56.494Z,23.70
2023-07-28T16:18:30.330Z,23.71
2023-07-28T16:21:00.948Z,23.79
2023-07-28T16:23:32.039Z,23.83
2023-07-28T16:26:23.215Z,23.77
2023-07-28T16:28:53.242Z,23.74
2023-07-28T16:31:27.480Z,23.72
2023-07-28T16:34:16.722Z,23.61
2023-07-28T16:40:19.530Z,23.15
2023-07-28T16:43:56.631Z,23.04
2023-07-28T16:47:09.473Z,22.87
2023-07-28T16:53:24.336Z,22.65
2023-07-28T16:55:56.044Z,22.50
2023-07-28T16:58:27.256Z,22.36
2023-07-28T17:01:01.569Z,22.28
2023-07-28T17:03:45.782Z,22.21
2023-07-28T17:06:22.567Z,22.12
2023-07-28T17:09:05.180Z,21.99
2023-07-28T17:11:42.399Z,21.88
2023-07-28T17:14:14.545Z,21.73
2023-07-28T17:17:05.720Z,21.63
2023-07-28T17:19:36.502Z,21.54
2023-07-28T17:22:08.202Z,21.50
2023-07-28T17:24:51.914Z,21.45
2023-07-28T17:28:05.619Z,21.42
2023-07-28T17:30:40.949Z,21.49
2023-07-28T17:33:19.391Z,21.58
2023-07-28T17:35:57.634Z,21.58
2023-07-28T17:38:38.431Z,21.57
2023-07-28T17:41:15.322Z,21.48
2023-07-28T17:43:58.770Z,21.36
2023-07-28T17:59:56.895Z,21.09
2023-07-28T18:03:49.181Z,21.01
2023-07-28T18:07:22.603Z,20.93
2023-07-28T18:11:06.644Z,20.79
2023-07-28T18:16:42.446Z,20.54
2023-07-28T18:22:47.894Z,20.26
2023-07-28T18:25:28.414Z,20.16
2023-07-28T18:28:03.717Z,20.10
2023-07-28T18:31:05.034Z,20.01
2023-07-28T18:34:04.354Z,19.85
2023-07-28T18:36:41.054Z,19.71
2023-07-28T18:39:53.701Z,19.60
2023-07-28T18:42:29.673Z,19.45
2023-07-28T18:45:02.880Z,19.32
2023-07-28T18:47:39.870Z,19.15
2023-07-28T18:50:11.914Z,18.95
2023-07-28T19:10:05.578Z,18.05
2023-07-28T19:16:39.332Z,17.74
2023-07-28T19:19:34.070Z,17.66
2023-07-28T19:23:12.491Z,17.55
2023-07-28T19:29:23.083Z,17.36
2023-07-28T19:32:01.982Z,17.31
2023-07-28T19:34:38.845Z,17.30
2023-07-28T19:37:22.058Z,17.24
2023-07-28T19:43:35.684Z,17.21
2023-07-28T19:46:45.345Z,17.10
2023-07-28T19:50:11.570Z,16.99
2023-07-28T19:53:40.366Z,16.83
2023-07-28T19:57:21.362Z,16.73
2023-07-28T20:00:54.345Z,16.68
2023-07-28T20:07:47.728Z,16.64
2023-07-28T20:14:27.952Z,16.58
2023-07-28T20:24:22.022Z,16.46
2023-07-28T20:30:50.327Z,16.37
2023-07-28T20:38:11.746Z,16.06
2023-07-28T20:49:30.236Z,15.70
2023-07-28T21:04:34.258Z,15.73
2023-07-28T22:00:23.877Z,14.70
2023-07-28T23:24:59.670Z,14.83
